Time;durP1;ratioP1;P1;durP2;ratioP2;P2;SDS_P1;SDS_P2;PMS_P1;PMS_P2;Temp;Humidity;BMP_temperature;BMP_pressure;BME280_temperature;BME280_humidity;BME280_pressure;Samples;Min_cycle;Max_cycle;Signal;HPM_P1;HPM_P2
2022/04/09 00:00:21;;;;;;;;;3.00;2.00;;;;;19.08;35.18;100534.06;4976447;28;46357;-62
2022/04/09 00:02:46;;;;;;;;;3.25;2.25;;;;;19.08;35.35;100528.81;4976309;28;45936;-58
2022/04/09 00:05:12;;;;;;;;;1.25;1.25;;;;;19.08;35.46;100539.34;4976830;28;45416;-60
2022/04/09 00:07:38;;;;;;;;;3.75;3.00;;;;;19.08;35.63;100542.81;4976466;28;45507;-64
2022/04/09 00:10:06;;;;;;;;;3.00;1.25;;;;;19.08;35.28;100544.59;4976375;28;46150;-59
2022/04/09 00:12:32;;;;;;;;;2.00;2.00;;;;;19.07;35.52;100551.63;4976282;28;45269;-63
2022/04/09 00:14:57;;;;;;;;;2.75;2.00;;;;;19.07;35.04;100554.25;4975030;28;45385;-61
2022/04/09 00:17:23;;;;;;;;;3.75;3.75;;;;;19.06;35.19;100557.81;4976404;28;45431;-62
2022/04/09 00:19:48;;;;;;;;;2.00;2.00;;;;;19.07;35.23;100564.75;4976055;28;46074;-63
2022/04/09 00:22:15;;;;;;;;;3.50;2.00;;;;;19.06;35.30;100560.44;4976372;28;45466;-64
2022/04/09 00:24:40;;;;;;;;;2.75;2.75;;;;;19.06;35.44;100568.31;4976655;28;45382;-62
2022/04/09 00:27:05;;;;;;;;;4.00;2.00;;;;;19.05;35.21;100561.38;4976353;28;45638;-60
2022/04/09 00:29:31;;;;;;;;;3.25;2.25;;;;;19.06;35.52;100563.06;4975940;28;46371;-62
2022/04/09 00:31:57;;;;;;;;;2.75;2.75;;;;;19.05;35.43;100563.16;4976173;28;45269;-60
2022/04/09 00:34:22;;;;;;;;;2.50;2.00;;;;;19.05;35.24;100566.63;4976121;28;45348;-62
2022/04/09 00:36:47;;;;;;;;;4.00;2.00;;;;;19.04;35.51;100564.09;4976260;28;45303;-61
2022/04/09 00:39:13;;;;;;;;;3.00;3.00;;;;;19.04;35.30;100564.91;4975771;28;46483;-61
2022/04/09 00:41:40;;;;;;;;;1.75;1.75;;;;;19.04;35.15;100564.91;4975504;28;45945;-61
2022/04/09 00:44:18;;;;;;;;;3.25;2.00;;;;;19.04;35.05;100567.53;4975899;28;45400;-62
2022/04/09 00:46:44;;;;;;;;;3.00;2.00;;;;;19.03;35.70;100573.72;4976782;28;45516;-63
2022/04/09 00:49:11;;;;;;;;;1.50;1.50;;;;;19.03;35.58;100572.88;4975680;28;46222;-61
2022/04/09 00:51:40;;;;;;;;;2.00;2.00;;;;;19.03;35.14;100576.34;4975855;28;45401;-61
2022/04/09 00:54:06;;;;;;;;;3.75;3.00;;;;;19.03;35.21;100578.97;4975958;28;45403;-64
2022/04/09 00:56:33;;;;;;;;;2.00;2.00;;;;;19.03;35.59;100578.97;4976129;28;45550;-61
2022/04/09 00:59:02;;;;;;;;;1.00;1.00;;;;;19.00;35.11;100579.16;4975668;28;45277;-61
2022/04/09 01:01:32;;;;;;;;;3.00;2.00;;;;;19.02;35.13;100585.16;4975626;28;45337;-61
2022/04/09 01:03:58;;;;;;;;;5.00;4.00;;;;;19.01;35.59;100583.50;4975714;28;45344;-63
2022/04/09 01:06:23;;;;;;;;;5.00;2.00;;;;;19.01;35.17;100588.75;4975816;28;45546;-62
2022/04/09 01:08:49;;;;;;;;;2.00;2.00;;;;;19.01;35.12;100586.13;4975545;28;45354;-63
2022/04/09 01:11:14;;;;;;;;;2.75;2.00;;;;;19.02;35.41;100586.94;4975945;28;45273;-63
2022/04/09 01:13:44;;;;;;;;;2.25;2.00;;;;;19.00;35.06;100594.91;4975776;28;45338;-61
2022/04/09 01:16:10;;;;;;;;;2.00;2.00;;;;;19.02;35.31;100594.81;4975901;28;45269;-62
2022/04/09 01:18:36;;;;;;;;;2.00;2.00;;;;;19.00;35.42;100600.19;4975411;28;46286;-62
2022/04/09 01:21:03;;;;;;;;;1.25;1.25;;;;;19.01;35.06;100599.25;4975674;28;45338;-62
2022/04/09 01:23:30;;;;;;;;;2.00;1.00;;;;;18.99;35.12;100596.69;4975542;28;45284;-62
2022/04/09 01:25:57;;;;;;;;;2.50;2.50;;;;;19.00;35.09;100602.81;4975685;28;45319;-56
2022/04/09 01:28:22;;;;;;;;;2.50;1.75;;;;;18.99;35.22;100615.06;4975360;28;45448;-62
2022/04/09 01:30:48;;;;;;;;;3.75;2.00;;;;;18.99;35.54;100615.06;4975226;28;45449;-61
2022/04/09 01:33:20;;;;;;;;;1.00;1.00;;;;;18.99;35.28;100614.22;4975754;28;45346;-58
2022/04/09 01:35:47;;;;;;;;;3.75;1.00;;;;;18.98;35.02;100623.03;4975915;28;45431;-60
2022/04/09 01:38:13;;;;;;;;;3.00;1.00;;;;;18.98;35.36;100629.13;4975630;28;46600;-57
2022/04/09 01:40:39;;;;;;;;;1.75;1.75;;;;;18.99;35.25;100630.81;4975196;28;45280;-61
2022/04/09 01:43:04;;;;;;;;;2.00;2.00;;;;;18.98;35.05;100631.75;4975247;28;45374;-63
2022/04/09 01:45:30;;;;;;;;;1.25;1.00;;;;;18.98;35.42;100644.06;4975411;28;45322;-59
2022/04/09 01:47:56;;;;;;;;;1.00;1.00;;;;;18.98;35.47;100641.44;4973852;28;46001;-57
2022/04/09 01:50:21;;;;;;;;;1.50;1.50;;;;;18.97;35.35;100637.94;4975163;28;45463;-61
2022/04/09 01:52:47;;;;;;;;;1.25;1.00;;;;;18.97;35.19;100653.69;4975597;28;45381;-59
2022/04/09 01:55:13;;;;;;;;;1.50;1.50;;;;;18.97;35.13;100658.09;4975457;28;45528;-59
2022/04/09 01:57:39;;;;;;;;;3.00;1.00;;;;;18.97;35.47;100661.56;4973846;28;47097;-61
2022/04/09 02:00:08;;;;;;;;;2.00;2.00;;;;;18.96;35.40;100657.25;4975194;28;45371;-60
2022/04/09 02:02:33;;;;;;;;;1.00;1.00;;;;;18.96;35.30;100656.41;4974890;28;45407;-62
2022/04/09 02:04:58;;;;;;;;;1.00;1.00;;;;;18.96;35.13;100659.03;4975144;28;46016;-61
2022/04/09 02:07:24;;;;;;;;;1.00;1.00;;;;;18.96;35.19;100656.41;4974716;28;46854;-61
2022/04/09 02:09:50;;;;;;;;;2.50;2.00;;;;;18.94;35.13;100653.88;4975121;28;45327;-62
2022/04/09 02:12:15;;;;;;;;;1.00;1.00;;;;;18.96;35.47;100664.28;4975255;28;45750;-60
2022/04/09 02:14:40;;;;;;;;;2.00;1.00;;;;;18.95;35.09;100659.97;4975054;28;45239;-63
2022/04/09 02:17:06;;;;;;;;;2.00;2.00;;;;;18.95;35.20;100659.97;4973215;28;45604;-62
2022/04/09 02:19:32;;;;;;;;;1.00;1.00;;;;;18.95;35.16;100659.97;4974363;28;45344;-61
2022/04/09 02:21:57;;;;;;;;;1.00;1.00;;;;;18.95;35.10;100667.84;4974678;28;45324;-59
2022/04/09 02:24:23;;;;;;;;;3.00;1.00;;;;;18.95;35.20;100659.97;4974621;28;45563;-61
2022/04/09 02:26:48;;;;;;;;;1.00;1.00;;;;;18.94;35.57;100663.50;4974684;28;46679;-61
2022/04/09 02:29:13;;;;;;;;;1.75;1.75;;;;;18.94;35.20;100668.75;4973273;28;45451;-60
2022/04/09 02:31:38;;;;;;;;;1.75;1.75;;;;;18.93;35.03;100669.66;4974883;28;45278;-63
2022/04/09 02:34:05;;;;;;;;;1.00;1.00;;;;;18.93;35.07;100670.56;4974699;28;45429;-60
2022/04/09 02:36:31;;;;;;;;;1.00;1.00;;;;;18.93;35.18;100672.28;4974122;28;46259;-62
2022/04/09 02:38:57;;;;;;;;;0.00;0.00;;;;;18.93;35.43;100677.53;4973030;28;45791;-61
2022/04/09 02:41:22;;;;;;;;;1.75;0.50;;;;;18.92;35.07;100681.09;4974549;28;45325;-62
2022/04/09 02:43:48;;;;;;;;;1.25;1.25;;;;;18.93;35.18;100690.66;4974710;28;45322;-61
2022/04/09 02:46:13;;;;;;;;;1.00;1.00;;;;;18.92;35.29;100687.19;4974326;28;47094;-61
2022/04/09 02:48:38;;;;;;;;;2.00;0.75;;;;;18.92;35.32;100683.72;4974637;28;45457;-63
2022/04/09 02:51:04;;;;;;;;;2.50;1.50;;;;;18.90;35.47;100683.81;4974569;28;45323;-62
2022/04/09 02:53:29;;;;;;;;;0.75;0.75;;;;;18.92;35.42;100691.59;4974805;28;45235;-62
2022/04/09 02:55:54;;;;;;;;;1.00;1.00;;;;;18.92;35.18;100691.59;4974328;28;45301;-62
2022/04/09 02:58:20;;;;;;;;;1.00;1.00;;;;;18.92;35.50;100695.09;4974669;28;45326;-60
2022/04/09 03:00:45;;;;;;;;;0.00;0.00;;;;;18.90;35.30;100694.31;4973146;28;45294;-58
2022/04/09 03:03:11;;;;;;;;;1.25;1.25;;;;;18.91;34.94;100695.13;4973861;28;45244;-62
2022/04/09 03:05:36;;;;;;;;;2.50;1.00;;;;;18.91;35.39;100706.50;4974247;28;46070;-58
2022/04/09 03:08:01;;;;;;;;;2.00;1.50;;;;;18.90;35.29;100706.59;4974300;28;45208;-58
2022/04/09 03:10:27;;;;;;;;;1.00;1.00;;;;;18.90;35.33;100730.25;4974255;28;45589;-57
2022/04/09 03:12:52;;;;;;;;;0.00;0.00;;;;;18.90;35.09;100738.94;4974682;28;45422;-58
2022/04/09 03:15:18;;;;;;;;;1.25;1.25;;;;;18.89;35.19;100733.78;4974062;28;46138;-60
2022/04/09 03:17:44;;;;;;;;;1.25;1.25;;;;;18.89;35.37;100739.03;4972649;28;45312;-56
2022/04/09 03:20:10;;;;;;;;;1.00;1.00;;;;;18.89;35.11;100733.78;4974012;28;45500;-57
2022/04/09 03:22:35;;;;;;;;;1.00;1.00;;;;;18.88;35.40;100732.91;4974166;28;45573;-61
2022/04/09 03:25:02;;;;;;;;;1.00;1.00;;;;;18.89;35.24;100733.78;4974016;28;46397;-59
2022/04/09 03:27:28;;;;;;;;;1.00;1.00;;;;;18.87;35.27;100725.13;4973767;28;45911;-65
2022/04/09 03:29:53;;;;;;;;;0.25;0.25;;;;;18.88;35.16;100724.22;4974395;28;45331;-62
2022/04/09 03:32:20;;;;;;;;;1.00;1.00;;;;;18.86;35.50;100729.50;4974406;28;45568;-61
2022/04/09 03:34:45;;;;;;;;;0.00;0.00;;;;;18.88;35.10;100729.47;4973742;28;45354;-62
2022/04/09 03:37:11;;;;;;;;;0.00;0.00;;;;;18.87;35.27;100730.38;4972556;28;45379;-61
2022/04/09 03:39:37;;;;;;;;;0.75;0.75;;;;;18.87;35.61;100746.13;4973964;28;45197;-59
2022/04/09 03:42:03;;;;;;;;;1.00;1.00;;;;;18.85;35.58;100752.31;4973809;28;45236;-61
2022/04/09 03:44:29;;;;;;;;;1.00;1.00;;;;;18.84;35.36;100758.47;4973576;28;45570;-62
2022/04/09 03:47:02;;;;;;;;;1.00;1.00;;;;;18.84;35.28;100763.75;4974004;28;45479;-60
2022/04/09 03:49:31;;;;;;;;;1.00;1.00;;;;;18.84;35.53;100763.75;4973776;28;45209;-59
2022/04/09 03:51:57;;;;;;;;;0.75;0.75;;;;;18.85;35.44;100768.06;4973964;28;45455;-59
2022/04/09 03:54:22;;;;;;;;;0.75;0.75;;;;;18.84;35.21;100763.75;4973514;28;45331;-60
2022/04/09 03:56:48;;;;;;;;;1.00;1.00;;;;;18.83;35.58;100769.91;4973684;28;45379;-62
2022/04/09 03:59:13;;;;;;;;;0.50;0.00;;;;;18.84;35.29;100773.41;4973419;28;45324;-60
2022/04/09 04:01:39;;;;;;;;;1.00;1.00;;;;;18.83;35.54;100762.03;4973574;28;45415;-63
2022/04/09 04:04:05;;;;;;;;;0.25;0.25;;;;;18.82;35.43;100762.97;4973088;28;46287;-60
2022/04/09 04:06:31;;;;;;;;;1.00;1.00;;;;;18.83;35.43;100767.28;4973290;28;45920;-62
2022/04/09 04:08:57;;;;;;;;;0.25;0.25;;;;;18.82;35.36;100772.63;4973401;28;45319;-60
2022/04/09 04:11:22;;;;;;;;;1.75;0.25;;;;;18.83;35.66;100772.53;4973809;28;45178;-62
2022/04/09 04:13:48;;;;;;;;;0.25;0.25;;;;;18.81;35.41;100766.50;4973086;28;46814;-63
2022/04/09 04:16:14;;;;;;;;;1.25;1.25;;;;;18.82;35.57;100776.09;4975342;28;46044;-60
2022/04/09 04:18:40;;;;;;;;;0.00;0.00;;;;;18.82;35.30;100767.38;4976308;28;45449;-59
2022/04/09 04:21:05;;;;;;;;;0.00;0.00;;;;;18.82;35.54;100760.34;4975275;28;45514;-59
2022/04/09 04:23:31;;;;;;;;;1.00;1.00;;;;;18.82;35.40;100770.00;4976155;28;45964;-61
2022/04/09 04:25:56;;;;;;;;;1.00;1.00;;;;;18.81;35.61;100768.28;4976198;28;45895;-59
2022/04/09 04:28:21;;;;;;;;;2.25;1.00;;;;;18.81;35.47;100763.03;4976678;28;45443;-61
2022/04/09 04:30:47;;;;;;;;;0.75;0.75;;;;;18.79;35.57;100773.63;4976192;28;45397;-60
2022/04/09 04:33:12;;;;;;;;;0.00;0.00;;;;;18.80;35.37;100772.69;4975941;28;48211;-63
2022/04/09 04:35:37;;;;;;;;;1.00;1.00;;;;;18.79;35.47;100773.63;4975970;28;48286;-61
2022/04/09 04:38:03;;;;;;;;;0.00;0.00;;;;;18.80;35.53;100771.84;4976054;28;45353;-62
2022/04/09 04:40:28;;;;;;;;;0.00;0.00;;;;;18.79;35.51;100768.38;4976217;28;45616;-63
2022/04/09 04:42:54;;;;;;;;;0.00;0.00;;;;;18.78;35.58;100757.94;4976001;28;46053;-62
2022/04/09 04:45:19;;;;;;;;;0.25;0.25;;;;;18.79;35.30;100772.75;4975935;28;45414;-60
2022/04/09 04:47:45;;;;;;;;;0.50;0.50;;;;;18.78;35.50;100761.44;4975987;28;45670;-63
2022/04/09 04:50:11;;;;;;;;;0.00;0.00;;;;;18.79;35.37;100770.13;4976306;28;45334;-61
2022/04/09 04:52:37;;;;;;;;;0.00;0.00;;;;;18.78;35.66;100771.94;4975941;28;46104;-59
2022/04/09 04:55:03;;;;;;;;;0.00;0.00;;;;;18.77;35.46;100775.47;4975168;28;64890;-62
2022/04/09 04:57:28;;;;;;;;;1.00;0.75;;;;;18.78;35.37;100786.81;4976091;28;45327;-57
2022/04/09 04:59:58;;;;;;;;;2.00;0.00;;;;;18.77;35.59;100783.34;4976527;28;45619;-60
2022/04/09 05:02:23;;;;;;;;;0.00;0.00;;;;;18.75;35.18;100779.94;4974786;28;48347;-60
2022/04/09 05:04:48;;;;;;;;;1.00;1.00;;;;;18.77;35.46;100791.22;4975752;28;45382;-61
2022/04/09 05:07:14;;;;;;;;;0.50;0.50;;;;;18.77;35.46;100793.84;4975932;28;45880;-60
2022/04/09 05:09:39;;;;;;;;;0.00;0.00;;;;;18.76;35.63;100792.16;4975884;28;45318;-59
2022/04/09 05:12:05;;;;;;;;;0.75;0.75;;;;;18.76;35.53;100792.16;4975613;28;46461;-59
2022/04/09 05:14:30;;;;;;;;;1.00;1.00;;;;;18.76;35.36;100800.03;4975615;28;45355;-57
2022/04/09 05:16:57;;;;;;;;;0.00;0.00;;;;;18.75;35.59;100798.31;4976134;28;45275;-57
2022/04/09 05:19:22;;;;;;;;;0.25;0.25;;;;;18.75;35.34;100807.97;4975752;28;45415;-59
2022/04/09 05:21:48;;;;;;;;;0.00;0.00;;;;;18.76;35.17;100807.03;4975433;28;45282;-61
2022/04/09 05:24:13;;;;;;;;;0.50;0.50;;;;;18.73;35.48;100802.78;4975265;28;45344;-62
2022/04/09 05:26:38;;;;;;;;;0.25;0.25;;;;;18.75;35.29;100800.09;4975237;28;45366;-59
2022/04/09 05:29:04;;;;;;;;;0.50;0.50;;;;;18.75;35.45;100800.94;4975630;28;45228;-61
2022/04/09 05:31:29;;;;;;;;;0.25;0.25;;;;;18.73;35.40;100789.66;4975626;28;46424;-62
2022/04/09 05:33:55;;;;;;;;;0.00;0.00;;;;;18.74;35.24;100787.91;4975561;28;45457;-62
2022/04/09 05:36:21;;;;;;;;;1.00;1.00;;;;;18.73;35.48;100791.47;4975465;28;45431;-60
2022/04/09 05:38:46;;;;;;;;;1.00;1.00;;;;;18.73;35.47;100812.47;4974213;28;45564;-62
2022/04/09 05:41:12;;;;;;;;;0.00;0.00;;;;;18.72;35.14;100821.25;4975270;28;45441;-60
2022/04/09 05:43:37;;;;;;;;;0.25;0.25;;;;;18.71;35.26;100817.75;4975098;28;45471;-58
2022/04/09 05:46:03;;;;;;;;;0.75;0.75;;;;;18.71;35.51;100817.75;4975381;28;45364;-62
2022/04/09 05:48:28;;;;;;;;;0.75;0.00;;;;;18.72;35.44;100816.84;4975801;28;45426;-63
2022/04/09 05:50:53;;;;;;;;;2.00;0.75;;;;;18.70;35.24;100821.31;4973737;28;45835;-63
2022/04/09 05:53:19;;;;;;;;;0.00;0.00;;;;;18.72;35.60;100826.50;4973703;27;45509;-61
2022/04/09 05:55:44;;;;;;;;;0.00;0.00;;;;;18.71;35.21;100830.88;4974006;28;45564;-63
2022/04/09 05:58:09;;;;;;;;;0.00;0.00;;;;;18.70;35.60;100829.19;4975505;28;45289;-59
2022/04/09 06:00:35;;;;;;;;;0.00;0.00;;;;;18.72;35.38;100837.00;4973654;28;46188;-59
2022/04/09 06:03:01;;;;;;;;;2.00;0.50;;;;;18.71;35.34;100836.16;4975241;28;45382;-60
2022/04/09 06:05:27;;;;;;;;;0.00;0.00;;;;;18.70;35.27;100839.69;4975479;28;45354;-62
2022/04/09 06:07:53;;;;;;;;;0.00;0.00;;;;;18.69;35.32;100838.84;4975200;28;45188;-60
2022/04/09 06:10:19;;;;;;;;;0.00;0.00;;;;;18.69;35.20;100832.72;4974916;28;46442;-60
2022/04/09 06:12:45;;;;;;;;;0.00;0.00;;;;;18.69;35.39;100837.97;4974875;28;45543;-60
2022/04/09 06:15:10;;;;;;;;;0.50;0.50;;;;;18.69;35.26;100832.72;4974876;28;45297;-63
2022/04/09 06:17:36;;;;;;;;;0.00;0.00;;;;;18.69;35.36;100837.97;4973933;28;45328;-63
2022/04/09 06:20:04;;;;;;;;;0.00;0.00;;;;;18.69;35.46;100845.84;4974970;28;45324;-57
2022/04/09 06:22:30;;;;;;;;;0.00;0.00;;;;;18.68;35.32;100847.66;4974974;28;46619;-59
2022/04/09 06:24:55;;;;;;;;;0.00;0.00;;;;;18.69;35.55;100856.38;4975000;28;45244;-57
2022/04/09 06:27:20;;;;;;;;;0.00;0.00;;;;;18.69;35.60;100859.00;4975081;28;45166;-59
2022/04/09 06:29:46;;;;;;;;;0.00;0.00;;;;;18.68;35.45;100860.78;4974693;28;46502;-61
2022/04/09 06:32:12;;;;;;;;;0.00;0.00;;;;;18.69;35.41;100874.75;4974647;28;45369;-62
2022/04/09 06:34:37;;;;;;;;;0.00;0.00;;;;;18.69;35.56;100880.00;4973600;28;45765;-62
2022/04/09 06:37:03;;;;;;;;;0.00;0.00;;;;;18.69;35.17;100878.22;4974882;28;45350;-56
2022/04/09 06:39:29;;;;;;;;;0.00;0.00;;;;;18.68;35.41;100884.41;4974032;28;46517;-61
2022/04/09 06:41:54;;;;;;;;;0.00;0.00;;;;;18.68;35.27;100873.91;4974517;28;48018;-59
2022/04/09 06:44:19;;;;;;;;;0.00;0.00;;;;;18.68;35.57;100875.69;4974676;28;45285;-61
2022/04/09 06:46:46;;;;;;;;;0.75;0.75;;;;;18.67;35.55;100884.50;4973464;27;45559;-61
2022/04/09 06:49:15;;;;;;;;;1.00;1.00;;;;;18.69;35.52;100893.13;4974307;28;46330;-60
2022/04/09 06:51:42;;;;;;;;;1.00;1.00;;;;;18.68;35.28;100889.66;4974359;28;45897;-61
2022/04/09 06:54:07;;;;;;;;;0.00;0.00;;;;;18.67;35.42;100893.19;4974596;28;45415;-61
2022/04/09 06:56:33;;;;;;;;;1.00;0.00;;;;;18.69;35.86;100895.75;4974991;28;45479;-63
2022/04/09 06:58:58;;;;;;;;;0.00;0.00;;;;;18.67;35.57;100897.63;4974276;28;45221;-61
2022/04/09 07:01:25;;;;;;;;;0.00;0.00;;;;;18.67;35.47;100903.69;4974325;28;45471;-61
2022/04/09 07:03:51;;;;;;;;;0.00;0.00;;;;;18.67;35.64;100908.13;4974360;28;45375;-63
2022/04/09 07:06:17;;;;;;;;;0.50;0.50;;;;;18.67;35.42;100908.94;4974428;28;45675;-60
2022/04/09 07:08:42;;;;;;;;;1.00;1.00;;;;;18.67;35.64;100910.75;4974125;28;46464;-58
2022/04/09 07:11:08;;;;;;;;;0.50;0.50;;;;;18.66;35.57;100914.28;4972946;28;45336;-62
2022/04/09 07:13:33;;;;;;;;;1.00;1.00;;;;;18.67;35.57;100916.00;4974538;28;45334;-61
2022/04/09 07:15:58;;;;;;;;;0.00;0.00;;;;;18.67;35.73;100918.63;4973164;28;45543;-58
2022/04/09 07:18:24;;;;;;;;;0.25;0.25;;;;;18.67;35.49;100923.88;4972496;28;46535;-61
2022/04/09 07:20:49;;;;;;;;;1.00;1.00;;;;;18.66;35.53;100922.16;4974013;28;45403;-62
2022/04/09 07:23:15;;;;;;;;;1.00;1.00;;;;;18.67;35.79;100923.88;4973679;28;48661;-56
2022/04/09 07:25:42;;;;;;;;;0.00;0.00;;;;;18.66;35.50;100927.41;4974365;28;45313;-57
2022/04/09 07:28:08;;;;;;;;;2.00;1.00;;;;;18.67;35.61;100926.50;4973900;28;46341;-58
2022/04/09 07:30:33;;;;;;;;;1.00;1.00;;;;;18.67;35.68;100923.88;4974086;28;45310;-59
2022/04/09 07:32:58;;;;;;;;;3.00;1.00;;;;;18.68;35.62;100929.03;4973837;28;45305;-57
2022/04/09 07:35:25;;;;;;;;;2.00;1.00;;;;;18.67;35.61;100921.25;4972651;28;45579;-56
2022/04/09 07:37:55;;;;;;;;;0.00;0.00;;;;;18.67;35.75;100934.38;4973665;28;45418;-56
2022/04/09 07:40:30;;;;;;;;;1.00;1.00;;;;;18.67;35.57;100934.38;4973638;28;45320;-61
2022/04/09 07:42:59;;;;;;;;;1.00;1.00;;;;;18.67;35.36;100934.38;4973706;28;45248;-59
2022/04/09 07:45:25;;;;;;;;;1.00;1.00;;;;;18.68;36.05;100941.31;4973789;28;45541;-60
2022/04/09 07:47:55;;;;;;;;;2.00;1.00;;;;;18.68;35.67;100942.16;4972031;28;47353;-62
2022/04/09 07:50:21;;;;;;;;;0.75;0.75;;;;;18.69;35.79;100935.13;4975747;28;45346;-62
2022/04/09 07:52:47;;;;;;;;;0.75;0.50;;;;;18.68;35.63;100947.41;4976464;28;45309;-60
2022/04/09 07:55:17;;;;;;;;;1.00;1.00;;;;;18.69;35.85;100954.38;4976493;28;45558;-63
2022/04/09 07:57:44;;;;;;;;;2.00;1.00;;;;;18.68;35.71;100950.03;4976376;28;45947;-61
2022/04/09 08:00:10;;;;;;;;;1.25;0.00;;;;;18.69;35.48;100953.50;4976432;28;45338;-60
2022/04/09 08:02:35;;;;;;;;;2.00;1.00;;;;;18.68;35.98;100954.44;4976520;28;45548;-59
2022/04/09 08:05:01;;;;;;;;;2.00;1.00;;;;;18.68;35.75;100959.69;4976619;28;45301;-60
2022/04/09 08:07:27;;;;;;;;;2.00;1.00;;;;;18.68;35.55;100957.06;4976175;28;46375;-62
2022/04/09 08:09:52;;;;;;;;;1.00;1.00;;;;;18.67;35.83;100958.00;4976316;28;45216;-61
2022/04/09 08:12:18;;;;;;;;;0.75;0.75;;;;;18.67;35.83;100955.38;4976438;28;45378;-62
2022/04/09 08:14:43;;;;;;;;;1.00;1.00;;;;;18.67;35.89;100958.00;4976514;28;45336;-59
2022/04/09 08:17:09;;;;;;;;;0.50;0.50;;;;;18.67;35.74;100956.22;4974254;28;48546;-58
2022/04/09 08:19:35;;;;;;;;;1.50;1.50;;;;;18.68;35.94;100964.94;4976123;28;46130;-59
2022/04/09 08:22:02;;;;;;;;;2.00;1.00;;;;;18.66;35.76;100962.38;4976222;28;45498;-61
2022/04/09 08:24:28;;;;;;;;;0.00;0.00;;;;;18.67;35.47;100968.50;4976365;28;45261;-61
2022/04/09 08:26:53;;;;;;;;;1.25;0.50;;;;;18.68;35.84;100967.59;4976004;28;45785;-62
2022/04/09 08:29:20;;;;;;;;;1.00;1.00;;;;;18.66;35.98;100969.41;4975857;28;45270;-58
2022/04/09 08:31:47;;;;;;;;;0.50;0.50;;;;;18.68;35.79;100980.72;4976175;28;46224;-59
2022/04/09 08:34:17;;;;;;;;;1.75;1.00;;;;;18.67;35.89;100981.63;4976205;28;45335;-57
2022/04/09 08:36:44;;;;;;;;;1.00;1.00;;;;;18.67;35.84;100986.88;4975784;28;46385;-62
2022/04/09 08:39:09;;;;;;;;;0.75;0.50;;;;;18.67;35.98;100986.88;4976095;28;45780;-56
2022/04/09 08:41:36;;;;;;;;;1.00;1.00;;;;;18.68;35.95;100991.22;4976421;28;45271;-60
2022/04/09 08:44:02;;;;;;;;;2.25;2.25;;;;;18.68;36.16;100999.91;4974906;28;45608;-61
2022/04/09 08:46:27;;;;;;;;;2.75;1.75;;;;;18.68;35.83;100999.09;4974565;28;48074;-59
2022/04/09 08:48:54;;;;;;;;;2.75;2.00;;;;;18.68;35.75;101006.97;4974715;28;45347;-59
2022/04/09 08:51:19;;;;;;;;;1.00;1.00;;;;;18.67;35.74;101011.34;4976167;28;45278;-59
2022/04/09 08:53:46;;;;;;;;;1.25;1.25;;;;;18.68;35.94;101012.22;4975887;28;45399;-60
2022/04/09 08:56:12;;;;;;;;;1.75;1.75;;;;;18.68;35.55;101022.72;4975753;28;46411;-60
2022/04/09 08:58:38;;;;;;;;;2.00;2.00;;;;;18.68;36.00;101034.06;4975829;28;45371;-60
2022/04/09 09:01:03;;;;;;;;;5.00;2.75;;;;;18.67;35.87;101029.72;4975084;28;45307;-62
2022/04/09 09:03:29;;;;;;;;;1.75;1.75;;;;;18.67;36.11;101034.13;4975627;28;45487;-62
2022/04/09 09:05:54;;;;;;;;;1.00;1.00;;;;;18.68;35.90;101035.84;4974134;28;47337;-59
2022/04/09 09:08:38;;;;;;;;;1.00;1.00;;;;;18.67;35.91;101034.97;4975562;28;45189;-61
2022/04/09 09:11:03;;;;;;;;;2.00;2.00;;;;;18.68;35.66;101041.09;4975668;28;45355;-61
2022/04/09 09:13:29;;;;;;;;;2.75;2.75;;;;;18.67;36.09;101045.47;4975869;28;45561;-59
2022/04/09 09:15:55;;;;;;;;;2.25;1.50;;;;;18.67;35.75;101042.00;4975379;28;45600;-58
2022/04/09 09:18:32;;;;;;;;;3.00;1.50;;;;;18.69;36.03;101034.88;4975284;28;45918;-60
2022/04/09 09:20:59;;;;;;;;;1.75;1.75;;;;;18.67;36.07;101036.75;4974239;28;45336;-61
2022/04/09 09:23:30;;;;;;;;;4.00;1.25;;;;;18.68;36.01;101047.19;4975681;28;45466;-62
2022/04/09 09:25:57;;;;;;;;;2.00;2.00;;;;;18.69;36.16;101053.28;4975154;28;45361;-61
2022/04/09 09:28:24;;;;;;;;;2.25;2.00;;;;;18.70;36.10;101052.34;4975340;28;45343;-59
2022/04/09 09:30:50;;;;;;;;;1.25;1.25;;;;;18.71;36.02;101059.31;4974251;28;45347;-62
2022/04/09 09:33:15;;;;;;;;;2.00;2.00;;;;;18.70;35.95;101054.97;4974233;28;45632;-58
2022/04/09 09:35:47;;;;;;;;;2.25;2.00;;;;;18.72;36.09;101066.28;4975396;28;45889;-58
2022/04/09 09:38:27;;;;;;;;;4.00;2.00;;;;;18.72;36.11;101068.91;4975156;28;45264;-60
2022/04/09 09:40:53;;;;;;;;;3.00;2.00;;;;;18.71;35.85;101072.44;4975505;28;45470;-60
2022/04/09 09:43:21;;;;;;;;;1.50;1.50;;;;;18.73;35.68;101081.09;4975553;28;45518;-60
2022/04/09 09:45:47;;;;;;;;;1.50;1.50;;;;;18.73;35.71;101086.34;4975360;28;45359;-59
2022/04/09 09:48:27;;;;;;;;;3.50;2.00;;;;;18.73;35.73;101088.97;4973841;28;45747;-57
2022/04/09 09:51:04;;;;;;;;;1.25;1.25;;;;;18.72;36.06;101089.91;4975418;28;45537;-64
2022/04/09 09:53:32;;;;;;;;;1.00;1.00;;;;;18.74;35.80;101093.31;4973776;28;45337;-60
2022/04/09 09:55:59;;;;;;;;;1.50;1.50;;;;;18.73;36.00;101094.22;4973539;28;47069;-61
2022/04/09 09:58:26;;;;;;;;;1.00;1.00;;;;;18.72;35.81;101105.66;4975107;28;45364;-60
2022/04/09 10:00:51;;;;;;;;;2.00;2.00;;;;;18.72;35.75;101102.19;4973893;28;45469;-60
2022/04/09 10:03:18;;;;;;;;;3.00;2.00;;;;;18.72;35.70;101116.16;4975131;28;45374;-59
2022/04/09 10:05:47;;;;;;;;;2.00;2.00;;;;;18.72;35.78;101120.56;4973578;28;47170;-58
2022/04/09 10:08:13;;;;;;;;;2.00;2.00;;;;;18.71;35.83;101124.94;4973945;28;45807;-62
2022/04/09 10:10:43;;;;;;;;;1.00;1.00;;;;;18.71;35.73;101124.94;4975441;28;45442;-62
2022/04/09 10:13:08;;;;;;;;;2.00;2.00;;;;;18.72;35.66;101136.31;4974087;28;45405;-60
2022/04/09 10:15:33;;;;;;;;;1.00;1.00;;;;;18.71;35.45;101138.06;4974818;28;45451;-61
2022/04/09 10:18:01;;;;;;;;;2.00;2.00;;;;;18.71;35.62;101138.06;4974369;28;47681;-62
2022/04/09 10:20:28;;;;;;;;;1.25;1.25;;;;;18.70;35.63;101139.88;4975028;28;45294;-58
2022/04/09 10:23:02;;;;;;;;;3.00;3.00;;;;;18.70;35.92;101141.63;4974906;28;45512;-61
2022/04/09 10:25:30;;;;;;;;;1.00;1.00;;;;;18.68;35.55;101146.94;4974659;28;46221;-59
2022/04/09 10:28:04;;;;;;;;;2.25;1.00;;;;;18.67;35.55;101139.16;4974525;28;45582;-62
2022/04/09 10:30:39;;;;;;;;;2.00;2.00;;;;;18.67;35.86;101136.53;4974762;28;45565;-61
2022/04/09 10:33:21;;;;;;;;;2.00;2.00;;;;;18.66;35.84;101148.78;4974860;28;45341;-60
2022/04/09 10:35:47;;;;;;;;;3.00;2.00;;;;;18.65;35.70;101151.47;4974397;28;46270;-59
2022/04/09 10:38:17;;;;;;;;;1.00;1.00;;;;;18.64;35.56;101153.22;4974837;28;45184;-60
2022/04/09 10:40:42;;;;;;;;;1.50;1.50;;;;;18.63;35.75;101153.31;4974985;28;45355;-63
2022/04/09 10:43:08;;;;;;;;;2.67;1.33;;;;;18.62;35.80;101157.72;4974580;28;45397;-60
2022/04/09 10:46:15;;;;;;;;;0.00;0.00;;;;;18.61;35.78;101155.16;4974224;28;46306;-61
2022/04/09 10:48:44;;;;;;;;;2.00;2.00;;;;;18.61;35.65;101169.13;4974455;28;45280;-61
2022/04/09 10:51:14;;;;;;;;;1.50;1.50;;;;;18.60;35.71;101159.56;4974444;28;45288;-61
2022/04/09 10:53:48;;;;;;;;;2.00;2.00;;;;;18.64;35.77;101166.38;4974521;28;45649;-62
2022/04/09 10:56:24;;;;;;;;;4.00;2.00;;;;;18.69;35.88;101174.03;4974703;28;46091;-62
2022/04/09 10:59:04;;;;;;;;;1.00;1.00;;;;;18.75;36.05;101170.31;4974207;28;45852;-61
2022/04/09 11:01:48;;;;;;;;;1.00;1.00;;;;;18.79;35.79;101167.50;4974403;28;45478;-59
2022/04/09 11:04:25;;;;;;;;;1.00;1.00;;;;;18.86;36.00;101178.59;4974794;28;45505;-60
2022/04/09 11:07:10;;;;;;;;;2.00;2.00;;;;;18.94;35.81;101180.91;4974206;28;45766;-62
2022/04/09 11:09:59;;;;;;;;;4.00;2.75;;;;;19.00;35.82;101183.28;4972908;28;45894;-58
2022/04/09 11:12:41;;;;;;;;;6.00;6.00;;;;;19.06;36.15;101177.75;4974293;28;45401;-61
2022/04/09 11:15:11;;;;;;;;;9.75;8.25;;;;;19.13;35.86;101188.84;4974431;28;45685;-62
2022/04/09 11:17:45;;;;;;;;;20.25;17.25;;;;;19.18;36.04;101189.53;4973782;28;45460;-58
2022/04/09 11:20:15;;;;;;;;;24.75;20.25;;;;;19.23;35.96;101184.06;4973770;28;45277;-58
2022/04/09 11:22:51;;;;;;;;;29.25;26.50;;;;;19.28;36.12;101188.19;4972835;28;45327;-63